Weather at Bob Sikes Airport

Public forecast

Using degrees Fahrenheit for public forecast. Weather courtesy of forecast.io.

Current aviation weather report (METAR) for Bob Sikes Airport

2024/05/29 17:53 (retrieved 10 minutes ago)

KCEW 291753Z AUTO 10SM FEW120 32/17 A3013 RMK AO2 SLP199 T03170172 10317 20206 58007

Closest aviation forecast (TAF) to Bob Sikes Airport

Closest forecast is Duke Field, 7.7 nm (14.3 km) S.

2024/05/29 17:03 (retrieved 1 hour ago)

TAF KEGI 291700Z 2917/3023 VRB06KT 9999 FEW090 BKN150 QNH3000INS TX35/2920Z TN24/3011Z